createdAt,value
2023-08-10T00:00:33.862Z,71.63
2023-08-10T00:03:23.002Z,71.91
2023-08-10T00:06:13.056Z,71.93
2023-08-10T00:08:41.950Z,72.24
2023-08-10T00:11:10.339Z,72.08
2023-08-10T00:13:42.402Z,72.17
2023-08-10T00:16:19.539Z,72.43
2023-08-10T00:18:51.391Z,72.50
2023-08-10T00:21:19.775Z,72.59
2023-08-10T00:23:49.438Z,72.96
2023-08-10T00:26:17.883Z,72.93
2023-08-10T00:28:46.718Z,72.91
2023-08-10T00:31:15.737Z,73.46
2023-08-10T00:33:46.820Z,73.73
2023-08-10T00:36:16.794Z,74.10
2023-08-10T00:39:05.846Z,74.78
2023-08-10T00:41:34.615Z,75.30
2023-08-10T00:44:05.749Z,76.05
2023-08-10T00:46:34.675Z,76.78
2023-08-10T00:49:03.562Z,77.19
2023-08-10T00:51:42.412Z,77.23
2023-08-10T00:54:13.648Z,77.78
2023-08-10T00:56:44.540Z,77.59
2023-08-10T00:59:16.034Z,77.88
2023-08-10T01:01:45.811Z,77.90
2023-08-10T01:04:14.862Z,77.86
2023-08-10T01:06:57.237Z,77.81
2023-08-10T01:09:35.446Z,77.80
2023-08-10T01:12:18.810Z,78.06
2023-08-10T01:15:25.867Z,78.14
2023-08-10T01:18:07.325Z,78.29
2023-08-10T01:20:57.327Z,78.47
2023-08-10T01:23:47.833Z,78.51
2023-08-10T01:26:17.495Z,79.13
2023-08-10T01:28:47.061Z,79.03
2023-08-10T01:31:18.097Z,79.19
2023-08-10T01:33:54.010Z,79.52
2023-08-10T01:36:22.481Z,79.65
2023-08-10T01:38:53.638Z,79.72
2023-08-10T01:41:23.580Z,79.77
2023-08-10T01:43:52.283Z,79.86
2023-08-10T01:46:26.733Z,79.97
2023-08-10T01:48:58.737Z,79.72
2023-08-10T01:51:32.108Z,79.61
2023-08-10T01:54:12.464Z,79.39
2023-08-10T01:56:41.592Z,79.11
2023-08-10T01:59:10.697Z,78.61
2023-08-10T02:01:48.877Z,78.34
2023-08-10T02:04:26.287Z,78.23
2023-08-10T02:06:54.583Z,78.19
2023-08-10T02:09:25.814Z,78.01
2023-08-10T02:11:54.192Z,77.61
2023-08-10T02:14:31.387Z,77.95
2023-08-10T02:17:09.801Z,77.98
2023-08-10T02:19:38.277Z,77.62
2023-08-10T02:22:07.123Z,77.64
2023-08-10T02:24:35.813Z,78.06
2023-08-10T02:27:04.613Z,77.80
2023-08-10T02:29:32.918Z,77.95
2023-08-10T02:32:02.592Z,77.82
2023-08-10T02:34:34.468Z,77.80
2023-08-10T02:37:04.210Z,77.98
2023-08-10T02:39:32.803Z,78.07
2023-08-10T02:42:01.653Z,78.21
2023-08-10T02:44:30.298Z,78.36
2023-08-10T02:47:01.443Z,77.90
2023-08-10T02:49:30.028Z,77.88
2023-08-10T02:51:59.944Z,78.13
2023-08-10T02:54:29.031Z,77.98
2023-08-10T02:56:59.666Z,77.84
2023-08-10T02:59:28.237Z,78.16
2023-08-10T03:02:06.856Z,78.01
2023-08-10T03:04:35.932Z,78.24
2023-08-10T03:07:04.454Z,78.50
2023-08-10T03:09:33.127Z,78.60
2023-08-10T03:12:02.052Z,78.73
2023-08-10T03:14:30.621Z,78.78
2023-08-10T03:16:59.565Z,79.00
2023-08-10T03:19:27.907Z,78.54
2023-08-10T03:21:56.778Z,78.40
2023-08-10T03:24:25.680Z,78.09
2023-08-10T03:26:54.111Z,77.65
2023-08-10T03:29:22.646Z,77.23
2023-08-10T03:31:54.030Z,76.93
2023-08-10T03:34:23.085Z,76.60
2023-08-10T03:36:52.452Z,76.17
2023-08-10T03:39:21.427Z,75.99
2023-08-10T03:41:50.273Z,75.66
2023-08-10T03:44:18.832Z,75.48
2023-08-10T03:46:50.749Z,75.32
2023-08-10T03:49:21.042Z,75.39
2023-08-10T03:51:49.299Z,75.08
2023-08-10T03:54:18.388Z,74.64
2023-08-10T03:56:47.113Z,74.54
2023-08-10T03:59:16.538Z,74.20
2023-08-10T04:01:45.009Z,73.87
2023-08-10T04:04:13.410Z,74.08
2023-08-10T04:06:42.396Z,74.43
2023-08-10T04:09:18.380Z,74.62
2023-08-10T04:11:56.945Z,74.91
2023-08-10T04:14:25.472Z,75.01
2023-08-10T04:16:54.368Z,75.24
2023-08-10T04:19:23.216Z,75.24
2023-08-10T04:21:53.407Z,75.67
2023-08-10T04:24:22.332Z,76.14
2023-08-10T04:26:51.145Z,76.31
2023-08-10T04:29:28.973Z,76.15
2023-08-10T04:31:57.522Z,76.50
2023-08-10T04:34:29.433Z,76.66
2023-08-10T04:36:58.029Z,76.44
2023-08-10T04:39:35.415Z,76.31
2023-08-10T04:42:17.482Z,76.48
2023-08-10T04:44:49.070Z,76.29
2023-08-10T04:47:18.053Z,75.82
2023-08-10T04:49:49.715Z,75.44
2023-08-10T04:52:18.724Z,74.17
2023-08-10T04:54:47.332Z,73.51
2023-08-10T04:57:19.049Z,72.94
2023-08-10T04:59:47.688Z,72.79
2023-08-10T05:02:16.258Z,73.20
2023-08-10T05:04:46.109Z,73.44
2023-08-10T05:07:15.254Z,73.76
2023-08-10T05:09:55.978Z,74.15
2023-08-10T05:12:28.283Z,74.55
2023-08-10T05:14:57.768Z,74.97
2023-08-10T05:17:26.890Z,75.47
2023-08-10T05:19:55.371Z,75.75
2023-08-10T05:22:26.807Z,75.83
2023-08-10T05:25:10.232Z,75.83
2023-08-10T05:27:41.179Z,75.55
2023-08-10T05:30:13.921Z,75.39
2023-08-10T05:32:47.963Z,74.99
2023-08-10T05:35:36.831Z,74.25
2023-08-10T05:38:05.497Z,73.58
2023-08-10T05:40:36.407Z,72.97
2023-08-10T05:43:05.882Z,72.30
2023-08-10T05:45:39.188Z,71.48
2023-08-10T05:48:16.922Z,70.78
2023-08-10T05:50:46.252Z,70.15
2023-08-10T05:53:17.976Z,70.03
2023-08-10T05:55:46.655Z,69.48
2023-08-10T05:58:15.384Z,68.76
2023-08-10T06:00:44.078Z,68.30
2023-08-10T06:03:12.793Z,68.46
2023-08-10T06:05:41.546Z,68.36
2023-08-10T06:08:10.161Z,69.17
2023-08-10T06:10:39.210Z,69.36
2023-08-10T06:13:08.210Z,69.15
2023-08-10T06:15:37.097Z,68.68
2023-08-10T06:18:08.300Z,68.39
2023-08-10T06:20:37.964Z,67.90
2023-08-10T06:23:07.089Z,67.81
2023-08-10T06:25:36.243Z,66.99
2023-08-10T06:28:04.943Z,66.49
2023-08-10T06:30:33.385Z,66.66
2023-08-10T06:33:02.631Z,66.95
2023-08-10T06:35:36.559Z,65.32
2023-08-10T06:38:11.182Z,65.27
2023-08-10T06:40:40.089Z,65.50
2023-08-10T06:43:08.394Z,64.45
2023-08-10T06:45:37.007Z,63.58
2023-08-10T06:48:16.231Z,62.30
2023-08-10T06:50:48.896Z,62.22
2023-08-10T06:53:17.638Z,62.05
2023-08-10T06:55:52.220Z,62.02
2023-08-10T07:01:08.744Z,61.99
2023-08-10T07:03:40.596Z,61.41
2023-08-10T07:06:09.674Z,61.11
2023-08-10T07:08:38.614Z,61.33
2023-08-10T07:11:07.275Z,61.70
2023-08-10T07:13:44.977Z,61.60
2023-08-10T07:16:22.458Z,60.15
2023-08-10T07:18:50.925Z,59.80
2023-08-10T07:21:19.980Z,59.66
2023-08-10T07:23:49.648Z,58.99
2023-08-10T07:26:18.639Z,58.76
2023-08-10T07:28:46.907Z,58.63
2023-08-10T07:31:15.378Z,57.70
2023-08-10T07:33:47.238Z,57.54
2023-08-10T07:36:15.804Z,57.36
2023-08-10T07:38:44.399Z,57.36
2023-08-10T07:41:12.920Z,57.32
2023-08-10T07:43:42.132Z,56.62
2023-08-10T07:46:17.154Z,56.89
2023-08-10T07:48:47.132Z,56.98
2023-08-10T07:51:15.769Z,57.20
2023-08-10T07:53:44.547Z,56.32
2023-08-10T07:56:13.037Z,56.16
2023-08-10T07:58:41.937Z,55.84
2023-08-10T08:01:10.588Z,56.74
2023-08-10T08:03:39.027Z,56.64
2023-08-10T08:06:07.932Z,56.05
2023-08-10T08:08:36.608Z,55.34
2023-08-10T08:11:05.087Z,55.54
2023-08-10T08:13:34.452Z,55.74
2023-08-10T08:16:03.369Z,56.61
2023-08-10T08:18:58.771Z,56.34
2023-08-10T08:21:32.263Z,54.96
2023-08-10T08:24:02.517Z,55.06
2023-08-10T08:26:31.973Z,54.81
2023-08-10T08:29:02.848Z,54.56
2023-08-10T08:31:40.472Z,54.25
2023-08-10T08:34:08.670Z,53.98
2023-08-10T08:36:37.234Z,55.08
2023-08-10T08:39:05.947Z,55.25
2023-08-10T08:41:38.449Z,54.78
2023-08-10T08:44:08.357Z,53.35
2023-08-10T08:46:43.561Z,53.49
2023-08-10T08:49:15.916Z,52.30
2023-08-10T08:51:45.193Z,52.55
2023-08-10T08:54:14.098Z,52.42
2023-08-10T08:56:43.243Z,51.55
2023-08-10T08:59:14.681Z,51.11
2023-08-10T09:01:43.537Z,49.67
2023-08-10T09:04:11.995Z,50.00
2023-08-10T09:06:40.565Z,50.26
2023-08-10T09:09:09.096Z,50.41
2023-08-10T09:11:38.334Z,50.60
2023-08-10T09:14:09.773Z,49.89
2023-08-10T09:16:44.748Z,49.45
2023-08-10T09:19:16.359Z,48.47
2023-08-10T09:21:46.779Z,49.21
2023-08-10T09:24:15.115Z,48.61
2023-08-10T09:26:45.117Z,48.38
2023-08-10T09:29:13.965Z,48.53
2023-08-10T09:31:44.946Z,47.31
2023-08-10T09:34:23.222Z,47.12
2023-08-10T09:36:55.061Z,47.27
2023-08-10T09:39:23.285Z,47.85
2023-08-10T09:41:57.129Z,48.09
2023-08-10T09:44:26.474Z,47.59
2023-08-10T09:46:59.576Z,46.65
2023-08-10T09:49:28.251Z,46.09
2023-08-10T09:52:00.334Z,47.51
2023-08-10T09:54:30.134Z,47.43
2023-08-10T09:56:59.167Z,47.40
2023-08-10T09:59:27.980Z,45.74
2023-08-10T10:01:57.931Z,46.89
2023-08-10T10:04:29.703Z,48.09
2023-08-10T10:06:59.475Z,47.05
2023-08-10T10:09:31.140Z,47.50
2023-08-10T10:12:01.992Z,46.92
2023-08-10T10:14:48.703Z,46.83
2023-08-10T10:17:19.080Z,48.07
2023-08-10T10:19:51.766Z,48.00
2023-08-10T10:22:24.021Z,47.75
2023-08-10T10:24:52.959Z,46.37
2023-08-10T10:27:39.786Z,45.85
2023-08-10T10:30:18.732Z,46.94
2023-08-10T10:32:50.217Z,47.18
2023-08-10T10:35:33.208Z,48.11
2023-08-10T10:38:02.810Z,48.15
2023-08-10T10:40:31.070Z,47.46
2023-08-10T10:43:03.054Z,47.67
2023-08-10T10:45:40.453Z,47.89
2023-08-10T10:48:14.309Z,47.38
2023-08-10T10:50:44.854Z,47.57
2023-08-10T10:53:17.357Z,47.58
2023-08-10T10:55:47.299Z,46.31
2023-08-10T10:58:16.849Z,45.60
2023-08-10T11:00:49.610Z,45.68
2023-08-10T11:03:21.095Z,45.81
2023-08-10T11:05:49.510Z,46.66
2023-08-10T11:08:17.892Z,45.96
2023-08-10T11:10:46.552Z,46.61
2023-08-10T11:13:14.967Z,46.10
2023-08-10T11:15:48.239Z,47.21
2023-08-10T11:18:16.902Z,46.36
2023-08-10T11:20:46.559Z,45.49
2023-08-10T11:23:15.965Z,44.57
2023-08-10T11:25:52.773Z,44.00
2023-08-10T11:28:23.446Z,43.89
2023-08-10T11:30:52.000Z,44.11
2023-08-10T11:33:20.729Z,44.77
2023-08-10T11:35:54.295Z,44.20
2023-08-10T11:38:22.784Z,43.71
2023-08-10T11:40:51.536Z,43.61
2023-08-10T11:43:24.336Z,44.00
2023-08-10T11:45:54.713Z,43.90
2023-08-10T11:48:28.298Z,43.26
2023-08-10T11:51:04.476Z,43.22
2023-08-10T11:53:43.212Z,43.41
2023-08-10T11:56:11.634Z,43.10
2023-08-10T11:58:41.352Z,42.38
2023-08-10T12:01:12.787Z,42.43
2023-08-10T12:03:52.189Z,42.62
2023-08-10T12:06:22.036Z,41.16
2023-08-10T12:08:52.493Z,41.02
2023-08-10T12:11:21.354Z,40.66
2023-08-10T12:13:51.232Z,40.25
2023-08-10T12:16:21.895Z,39.57
2023-08-10T12:18:52.305Z,39.69
2023-08-10T12:21:21.211Z,41.40
2023-08-10T12:23:49.527Z,41.83
2023-08-10T12:26:18.472Z,41.86
2023-08-10T12:28:46.814Z,42.26
2023-08-10T12:31:22.698Z,41.78
2023-08-10T12:33:58.789Z,42.17
2023-08-10T12:36:27.688Z,42.12
2023-08-10T12:38:56.867Z,42.96
2023-08-10T12:41:25.261Z,42.05
2023-08-10T12:43:53.940Z,41.60
2023-08-10T12:46:22.904Z,41.23
2023-08-10T12:48:52.406Z,42.12
2023-08-10T12:51:21.708Z,41.04
2023-08-10T12:53:50.721Z,41.52
2023-08-10T12:56:21.876Z,42.12
2023-08-10T12:58:50.483Z,43.06
2023-08-10T13:01:20.850Z,42.98
2023-08-10T13:03:49.357Z,42.92
2023-08-10T13:06:25.450Z,43.76
2023-08-10T13:09:27.595Z,44.98
2023-08-10T13:11:59.423Z,45.68
2023-08-10T13:14:28.141Z,45.56
2023-08-10T13:16:56.529Z,45.87
2023-08-10T13:19:28.346Z,45.07
2023-08-10T13:21:57.494Z,45.08
2023-08-10T13:24:30.085Z,45.19
2023-08-10T13:27:03.367Z,45.62
2023-08-10T13:29:32.071Z,44.47
2023-08-10T13:32:01.163Z,44.20
2023-08-10T13:34:32.853Z,44.44
2023-08-10T13:37:01.327Z,45.17
2023-08-10T13:39:34.046Z,45.85
2023-08-10T13:42:03.089Z,46.01
2023-08-10T13:44:34.072Z,46.16
2023-08-10T13:47:02.967Z,46.59
2023-08-10T13:49:40.621Z,46.86
2023-08-10T13:52:13.343Z,47.70
2023-08-10T13:54:41.715Z,48.44
2023-08-10T13:57:20.810Z,48.91
2023-08-10T13:59:49.868Z,48.94
2023-08-10T14:02:19.369Z,48.68
2023-08-10T14:04:55.627Z,47.80
2023-08-10T14:07:24.004Z,47.65
2023-08-10T14:09:52.636Z,47.41
2023-08-10T14:12:21.168Z,46.50
2023-08-10T14:14:49.539Z,46.31
2023-08-10T14:17:18.472Z,46.51
2023-08-10T14:19:47.894Z,47.28
2023-08-10T14:22:16.502Z,46.43
2023-08-10T14:24:44.844Z,46.94
2023-08-10T14:27:15.529Z,47.09
2023-08-10T14:29:44.089Z,45.80
2023-08-10T14:32:12.486Z,45.73
2023-08-10T14:34:40.769Z,46.17
2023-08-10T14:37:11.907Z,45.64
2023-08-10T14:39:40.159Z,45.18
2023-08-10T14:42:08.674Z,44.62
2023-08-10T14:44:37.829Z,44.35
2023-08-10T14:47:06.605Z,45.62
2023-08-10T14:49:35.006Z,46.42
2023-08-10T14:52:03.746Z,45.92
2023-08-10T14:54:32.593Z,46.69
2023-08-10T14:57:01.205Z,46.74
2023-08-10T14:59:29.998Z,47.00
2023-08-10T15:01:58.657Z,46.87
2023-08-10T15:04:27.478Z,46.76
2023-08-10T15:06:56.027Z,46.98
2023-08-10T15:09:24.610Z,47.27
2023-08-10T15:11:52.938Z,47.29
2023-08-10T15:14:21.196Z,47.46
2023-08-10T15:16:49.627Z,47.62
2023-08-10T15:19:18.121Z,47.44
2023-08-10T15:21:46.730Z,47.52
2023-08-10T15:24:15.140Z,47.59
2023-08-10T15:26:43.676Z,47.36
2023-08-10T15:29:15.243Z,47.42
2023-08-10T15:31:43.808Z,47.55
2023-08-10T15:34:12.097Z,47.54
2023-08-10T15:36:46.353Z,47.42
2023-08-10T15:39:14.493Z,47.64
2023-08-10T15:41:42.702Z,47.35
2023-08-10T15:44:13.702Z,47.90
2023-08-10T15:46:42.373Z,47.93
2023-08-10T15:49:11.072Z,47.41
2023-08-10T15:51:39.916Z,47.05
2023-08-10T15:54:17.170Z,47.04
2023-08-10T15:56:45.410Z,47.65
2023-08-10T15:59:35.409Z,47.87
2023-08-10T16:02:04.549Z,47.15
2023-08-10T16:04:35.116Z,47.41
2023-08-10T16:07:04.454Z,47.88
2023-08-10T16:09:33.000Z,47.52
2023-08-10T16:12:01.594Z,47.40
2023-08-10T16:14:30.267Z,47.40
2023-08-10T16:16:59.283Z,47.85
2023-08-10T16:19:30.693Z,47.51
2023-08-10T16:22:04.367Z,47.77
2023-08-10T16:24:33.742Z,47.91
2023-08-10T16:27:02.177Z,48.20
2023-08-10T16:29:41.682Z,48.65
2023-08-10T16:32:20.246Z,48.57
2023-08-10T16:34:51.885Z,48.74
2023-08-10T16:37:20.303Z,48.84
2023-08-10T16:39:49.038Z,48.44
2023-08-10T16:42:17.534Z,48.44
2023-08-10T16:44:45.911Z,48.59
2023-08-10T16:47:14.520Z,48.79
2023-08-10T16:49:44.134Z,48.68
2023-08-10T16:52:12.715Z,48.73
2023-08-10T16:54:48.497Z,48.86
2023-08-10T16:57:20.740Z,48.97
2023-08-10T16:59:52.283Z,48.83
2023-08-10T17:02:20.894Z,49.05
2023-08-10T17:04:49.879Z,49.15
2023-08-10T17:07:22.124Z,49.32
2023-08-10T17:10:07.450Z,49.57
2023-08-10T17:12:44.980Z,49.85
2023-08-10T17:15:16.457Z,50.18
2023-08-10T17:17:45.869Z,50.27
2023-08-10T17:20:14.614Z,50.33
2023-08-10T17:22:59.386Z,50.16
2023-08-10T17:25:28.055Z,50.06
2023-08-10T17:28:13.343Z,50.22
2023-08-10T17:30:57.798Z,50.49
2023-08-10T17:33:32.149Z,50.60
2023-08-10T17:36:00.960Z,50.76
2023-08-10T17:38:30.948Z,51.02
2023-08-10T17:41:00.773Z,51.13
2023-08-10T17:43:31.687Z,51.11
2023-08-10T17:46:03.140Z,51.32
2023-08-10T17:48:32.014Z,51.35
2023-08-10T17:51:04.170Z,51.96
2023-08-10T17:53:32.802Z,52.97
2023-08-10T17:56:04.503Z,53.46
2023-08-10T17:58:41.717Z,53.87
2023-08-10T18:01:20.836Z,54.67
2023-08-10T18:03:56.442Z,55.28
2023-08-10T18:06:37.053Z,55.50
2023-08-10T18:09:11.564Z,56.55
2023-08-10T18:11:50.436Z,57.13
2023-08-10T18:14:26.166Z,57.79
2023-08-10T18:16:54.814Z,58.23
2023-08-10T18:19:23.381Z,58.54
2023-08-10T18:21:54.778Z,58.93
2023-08-10T18:24:23.579Z,59.35
2023-08-10T18:27:05.642Z,59.99
2023-08-10T18:29:39.613Z,60.65
2023-08-10T18:32:17.819Z,61.20
2023-08-10T18:34:46.425Z,61.60
2023-08-10T18:37:18.917Z,62.00
2023-08-10T18:39:59.156Z,62.57
2023-08-10T18:42:27.921Z,62.93
2023-08-10T18:45:00.290Z,63.21
2023-08-10T18:47:44.310Z,63.59
2023-08-10T18:50:16.057Z,63.94
2023-08-10T18:52:48.209Z,64.30
2023-08-10T18:55:18.882Z,65.05
2023-08-10T18:57:51.144Z,65.39
2023-08-10T19:00:20.374Z,65.66
2023-08-10T19:02:49.054Z,65.81
2023-08-10T19:05:23.204Z,66.08
2023-08-10T19:08:00.830Z,66.69
2023-08-10T19:10:32.319Z,66.92
2023-08-10T19:13:05.069Z,67.06
2023-08-10T19:15:42.996Z,67.24
2023-08-10T19:18:14.687Z,67.60
2023-08-10T19:20:44.221Z,68.03
2023-08-10T19:23:21.943Z,68.43
2023-08-10T19:26:00.349Z,68.91
2023-08-10T19:28:31.928Z,69.21
2023-08-10T19:31:06.042Z,69.34
2023-08-10T19:34:25.312Z,69.61
2023-08-10T19:37:03.230Z,69.94
2023-08-10T19:39:32.246Z,70.33
2023-08-10T19:42:08.742Z,70.63
2023-08-10T19:44:46.325Z,70.61
2023-08-10T19:47:22.006Z,71.12
2023-08-10T19:50:02.330Z,71.26
2023-08-10T19:52:33.920Z,71.56
2023-08-10T19:55:03.665Z,71.62
2023-08-10T19:57:35.075Z,71.71
2023-08-10T20:00:04.189Z,71.89
2023-08-10T20:02:36.824Z,72.01
2023-08-10T20:05:08.847Z,72.16
2023-08-10T20:07:37.770Z,72.51
2023-08-10T20:10:11.005Z,72.68
2023-08-10T20:12:40.437Z,72.78
2023-08-10T20:15:09.799Z,72.86
2023-08-10T20:17:40.304Z,73.00
2023-08-10T20:20:14.480Z,73.13
2023-08-10T20:22:43.137Z,73.25
2023-08-10T20:25:12.244Z,73.30
2023-08-10T20:28:03.330Z,73.45
2023-08-10T20:30:37.698Z,73.67
2023-08-10T20:33:14.359Z,73.79
2023-08-10T20:35:42.980Z,73.99
2023-08-10T20:38:11.630Z,73.87
2023-08-10T20:40:40.256Z,73.93
2023-08-10T20:43:09.634Z,74.09
2023-08-10T20:45:38.704Z,74.14
2023-08-10T20:48:06.986Z,74.26
2023-08-10T20:50:35.759Z,74.30
2023-08-10T20:53:13.868Z,74.29
2023-08-10T20:55:42.629Z,74.43
2023-08-10T20:58:12.600Z,74.48
2023-08-10T21:00:41.633Z,74.60
2023-08-10T21:03:10.405Z,74.38
2023-08-10T21:06:01.654Z,74.11
2023-08-10T21:08:38.606Z,73.69
2023-08-10T21:11:07.482Z,73.23
2023-08-10T21:13:36.648Z,72.63
2023-08-10T21:16:06.150Z,72.22
2023-08-10T21:18:37.494Z,71.53
2023-08-10T21:21:09.573Z,70.73
2023-08-10T21:24:12.734Z,70.02
2023-08-10T21:26:42.143Z,69.42
2023-08-10T21:29:31.997Z,69.15
2023-08-10T21:32:18.407Z,68.92
2023-08-10T21:34:47.421Z,68.76
2023-08-10T21:37:16.272Z,68.81
2023-08-10T21:40:04.673Z,68.47
2023-08-10T21:42:45.940Z,68.01
2023-08-10T21:45:37.918Z,67.77
2023-08-10T21:48:07.234Z,67.06
2023-08-10T21:50:39.051Z,66.87
2023-08-10T21:53:14.488Z,66.76
2023-08-10T21:55:43.279Z,66.63
2023-08-10T21:58:33.680Z,66.36
2023-08-10T22:01:02.639Z,66.23
2023-08-10T22:03:34.781Z,66.18
2023-08-10T22:06:03.761Z,66.24
2023-08-10T22:08:39.190Z,65.75
2023-08-10T22:11:07.887Z,65.33
2023-08-10T22:13:53.945Z,65.00
2023-08-10T22:16:24.219Z,64.78
2023-08-10T22:18:55.743Z,64.38
2023-08-10T22:21:37.190Z,64.47
2023-08-10T22:24:11.129Z,64.26
2023-08-10T22:26:41.040Z,64.40
2023-08-10T22:29:15.992Z,64.10
2023-08-10T22:31:49.006Z,64.08
2023-08-10T22:34:22.558Z,64.24
2023-08-10T22:36:51.562Z,64.07
2023-08-10T22:39:21.584Z,64.01
2023-08-10T22:41:50.777Z,63.66
2023-08-10T22:44:19.636Z,63.66
2023-08-10T22:46:49.887Z,64.12
2023-08-10T22:49:23.198Z,64.22
2023-08-10T22:51:52.636Z,64.38
2023-08-10T22:54:24.021Z,64.32
2023-08-10T23:05:46.341Z,64.50
2023-08-10T23:08:23.386Z,64.06
2023-08-10T23:11:26.003Z,63.82
2023-08-10T23:13:57.760Z,63.72
2023-08-10T23:16:30.326Z,63.26
2023-08-10T23:19:03.216Z,63.02
2023-08-10T23:21:35.067Z,62.87
2023-08-10T23:24:09.735Z,62.55
2023-08-10T23:27:01.533Z,62.72
2023-08-10T23:29:32.400Z,62.70
2023-08-10T23:32:15.257Z,62.48
2023-08-10T23:34:59.491Z,62.38
2023-08-10T23:37:28.453Z,62.28
2023-08-10T23:40:05.229Z,61.87
2023-08-10T23:42:36.594Z,61.94
2023-08-10T23:45:07.383Z,61.82
2023-08-10T23:47:39.609Z,61.80
2023-08-10T23:50:18.731Z,61.93
2023-08-10T23:52:47.872Z,61.73
2023-08-10T23:55:21.346Z,61.66
2023-08-10T23:57:52.895Z,61.64
